Time;durP1;ratioP1;P1;durP2;ratioP2;P2;SDS_P1;SDS_P2;PMS_P1;PMS_P2;Temp;Humidity;BMP_temperature;BMP_pressure;BME280_temperature;BME280_humidity;BME280_pressure;Samples;Min_cycle;Max_cycle;Signal;HPM_P1;HPM_P2
2023/06/26 00:00:11;;;;;;;7.33;6.73;;;20.80;99.90;;;;;;5009741;28;20258;-54
2023/06/26 00:02:37;;;;;;;7.38;6.75;;;20.80;99.90;;;;;;5004434;28;20216;-46
2023/06/26 00:05:05;;;;;;;6.60;6.10;;;20.70;99.90;;;;;;5021393;28;20192;-45
2023/06/26 00:07:33;;;;;;;7.27;6.67;;;20.70;99.90;;;;;;5025376;28;20199;-45
2023/06/26 00:10:01;;;;;;;7.93;7.20;;;20.60;99.90;;;;;;5008196;28;20250;-56
2023/06/26 00:12:27;;;;;;;7.30;6.70;;;20.60;99.90;;;;;;5013657;28;20227;-51
2023/06/26 00:14:54;;;;;;;7.72;7.13;;;20.60;99.90;;;;;;5021790;28;20188;-53
2023/06/26 00:17:23;;;;;;;7.37;6.70;;;20.50;99.90;;;;;;5016571;28;20239;-47
2023/06/26 00:19:50;;;;;;;8.17;7.47;;;20.60;99.90;;;;;;4989601;28;20615;-51
2023/06/26 00:22:17;;;;;;;9.13;8.20;;;20.50;99.90;;;;;;5018073;28;20258;-55
2023/06/26 00:24:44;;;;;;;7.93;7.23;;;20.40;99.90;;;;;;5011118;28;20365;-54
2023/06/26 00:27:11;;;;;;;7.32;6.82;;;20.40;99.90;;;;;;5012308;28;20203;-46
2023/06/26 00:29:38;;;;;;;7.53;6.77;;;20.40;99.90;;;;;;5025268;28;20254;-49
2023/06/26 00:32:05;;;;;;;8.90;8.20;;;20.30;99.90;;;;;;5010529;28;20212;-48
2023/06/26 00:34:35;;;;;;;8.17;7.43;;;20.40;99.90;;;;;;4998553;28;20222;-51
2023/06/26 00:37:02;;;;;;;7.90;7.10;;;20.30;99.90;;;;;;5020353;28;20219;-53
2023/06/26 00:39:30;;;;;;;8.67;7.87;;;20.30;99.90;;;;;;5024542;28;20725;-46
2023/06/26 00:41:57;;;;;;;8.33;7.73;;;20.30;99.90;;;;;;5009798;28;20281;-54
2023/06/26 00:44:24;;;;;;;8.17;7.47;;;20.20;99.90;;;;;;5015092;28;20273;-45
2023/06/26 00:46:51;;;;;;;8.77;7.97;;;20.10;99.90;;;;;;5008666;28;20189;-52
2023/06/26 00:49:19;;;;;;;8.53;7.73;;;20.10;99.90;;;;;;5001831;28;20294;-45
2023/06/26 00:51:47;;;;;;;8.67;7.83;;;20.10;99.90;;;;;;5023820;28;20269;-54
2023/06/26 00:54:19;;;;;;;8.47;7.87;;;20.10;99.90;;;;;;5021873;28;20215;-48
2023/06/26 00:56:46;;;;;;;8.80;8.10;;;20.10;99.90;;;;;;5011718;28;20706;-53
2023/06/26 00:59:13;;;;;;;9.60;8.90;;;20.00;99.90;;;;;;5006804;28;20343;-50
2023/06/26 01:01:40;;;;;;;8.93;8.13;;;20.00;99.90;;;;;;5022741;28;20247;-49
2023/06/26 01:04:17;;;;;;;9.00;8.20;;;20.00;99.90;;;;;;4990286;28;24643;-48
2023/06/26 01:06:48;;;;;;;8.53;7.83;;;19.90;99.90;;;;;;5022344;28;20254;-54
2023/06/26 01:09:18;;;;;;;9.60;8.53;;;19.90;99.90;;;;;;5019499;28;20858;-50
2023/06/26 01:11:45;;;;;;;9.40;8.60;;;19.90;99.90;;;;;;5004118;28;20224;-53
2023/06/26 01:14:12;;;;;;;8.40;7.70;;;19.90;99.90;;;;;;5006316;28;20274;-47
2023/06/26 01:16:39;;;;;;;9.77;8.87;;;19.90;99.90;;;;;;5017468;28;20219;-50
2023/06/26 01:19:14;;;;;;;9.97;9.13;;;19.80;99.90;;;;;;4984531;28;21825;-49
2023/06/26 01:21:45;;;;;;;8.83;8.23;;;19.80;99.90;;;;;;5017706;28;20223;-50
2023/06/26 01:24:20;;;;;;;9.87;9.03;;;19.80;99.90;;;;;;5019720;28;20263;-48
2023/06/26 01:26:52;;;;;;;8.93;8.13;;;19.80;99.90;;;;;;5011028;28;20216;-55
2023/06/26 01:29:20;;;;;;;9.83;8.93;;;19.80;99.90;;;;;;5013874;28;20204;-48
2023/06/26 01:31:49;;;;;;;10.03;9.23;;;19.70;99.90;;;;;;5021998;28;20690;-53
2023/06/26 01:34:16;;;;;;;9.03;8.33;;;19.70;99.90;;;;;;5007784;28;20196;-52
2023/06/26 01:36:43;;;;;;;9.83;8.93;;;19.70;99.90;;;;;;5002901;28;20685;-49
2023/06/26 01:39:10;;;;;;;9.50;8.70;;;19.70;99.90;;;;;;5019879;28;20878;-50
2023/06/26 01:41:37;;;;;;;9.40;8.60;;;19.70;99.90;;;;;;5022036;28;20208;-48
2023/06/26 01:44:15;;;;;;;10.37;9.47;;;19.70;99.90;;;;;;5000480;28;20211;-47
2023/06/26 01:46:54;;;;;;;10.13;9.27;;;19.70;99.90;;;;;;5017161;28;20192;-51
2023/06/26 01:49:29;;;;;;;9.63;8.87;;;19.60;99.90;;;;;;5013195;28;20258;-49
2023/06/26 01:52:07;;;;;;;10.73;9.63;;;19.60;99.90;;;;;;4993838;28;20219;-53
2023/06/26 01:54:40;;;;;;;10.27;9.37;;;19.60;99.90;;;;;;5018928;28;20274;-45
2023/06/26 01:57:08;;;;;;;10.20;9.37;;;19.50;99.90;;;;;;5005926;28;20837;-48
2023/06/26 01:59:37;;;;;;;10.17;9.40;;;19.50;99.90;;;;;;5011596;28;20200;-49
2023/06/26 02:02:08;;;;;;;10.33;9.33;;;19.50;99.90;;;;;;5017435;28;20251;-46
2023/06/26 02:04:35;;;;;;;10.30;9.40;;;19.50;99.90;;;;;;5022172;28;20615;-46
2023/06/26 02:07:02;;;;;;;10.60;9.70;;;19.50;99.90;;;;;;4991205;28;20249;-52
2023/06/26 02:09:32;;;;;;;10.50;9.60;;;19.50;99.90;;;;;;5001585;28;20211;-50
2023/06/26 02:11:58;;;;;;;10.60;9.53;;;19.50;99.90;;;;;;5007712;28;20231;-53
2023/06/26 02:14:26;;;;;;;11.20;10.10;;;19.50;99.90;;;;;;5022042;28;20199;-48
2023/06/26 02:16:55;;;;;;;11.00;10.10;;;19.50;99.90;;;;;;5009308;28;20219;-54
2023/06/26 02:19:22;;;;;;;11.20;10.20;;;19.50;99.90;;;;;;5022031;28;20188;-45
2023/06/26 02:21:49;;;;;;;9.43;8.63;;;19.40;99.90;;;;;;5001035;28;20220;-55
2023/06/26 02:24:16;;;;;;;10.33;9.43;;;19.50;99.90;;;;;;5004758;28;20379;-53
2023/06/26 02:26:43;;;;;;;9.70;8.90;;;19.50;99.90;;;;;;5013833;28;20187;-49
2023/06/26 02:29:11;;;;;;;10.07;9.17;;;19.40;99.90;;;;;;5010016;28;20204;-46
2023/06/26 02:31:40;;;;;;;9.63;8.77;;;19.50;99.90;;;;;;5010680;28;20231;-49
2023/06/26 02:34:08;;;;;;;10.63;9.73;;;19.40;99.90;;;;;;5016816;28;20254;-47
2023/06/26 02:36:35;;;;;;;9.50;8.77;;;19.40;99.90;;;;;;5010522;28;20211;-50
2023/06/26 02:39:05;;;;;;;9.97;9.10;;;19.40;99.90;;;;;;5000046;28;20204;-47
2023/06/26 02:41:32;;;;;;;10.73;9.70;;;19.40;99.90;;;;;;5018774;28;20224;-47
2023/06/26 02:43:59;;;;;;;10.20;9.27;;;19.30;99.90;;;;;;5015831;28;20204;-52
2023/06/26 02:46:26;;;;;;;9.23;8.43;;;19.40;99.90;;;;;;5009040;28;20296;-54
2023/06/26 02:48:53;;;;;;;10.60;9.70;;;19.40;99.90;;;;;;5024831;28;20199;-51
2023/06/26 02:51:22;;;;;;;9.90;9.10;;;19.30;99.90;;;;;;5015185;28;20223;-52
2023/06/26 02:53:50;;;;;;;9.50;8.67;;;19.30;99.90;;;;;;5002657;28;20294;-47
2023/06/26 02:56:17;;;;;;;9.27;8.37;;;19.30;99.90;;;;;;5023954;28;20212;-52
2023/06/26 02:58:43;;;;;;;9.67;8.87;;;19.30;99.90;;;;;;5018393;28;20803;-53
2023/06/26 03:01:10;;;;;;;9.67;8.87;;;19.30;99.90;;;;;;5014895;28;20230;-53
2023/06/26 03:03:41;;;;;;;9.53;8.73;;;19.30;99.90;;;;;;5014213;28;20192;-45
2023/06/26 03:06:10;;;;;;;9.63;8.83;;;19.20;99.90;;;;;;5024383;28;20567;-51
2023/06/26 03:08:39;;;;;;;8.80;8.03;;;19.20;99.90;;;;;;4990163;28;20348;-54
2023/06/26 03:11:06;;;;;;;9.60;8.90;;;19.20;99.90;;;;;;5021873;28;20315;-49
2023/06/26 03:13:33;;;;;;;9.13;8.33;;;19.20;99.90;;;;;;5020315;28;20920;-48
2023/06/26 03:16:00;;;;;;;9.30;8.57;;;19.20;99.90;;;;;;5013041;28;20262;-46
2023/06/26 03:18:27;;;;;;;9.57;8.67;;;19.20;99.90;;;;;;5012951;28;20203;-56
2023/06/26 03:20:55;;;;;;;9.30;8.60;;;19.20;99.90;;;;;;5020866;28;20265;-49
2023/06/26 03:23:22;;;;;;;8.83;8.23;;;19.20;99.90;;;;;;5012022;28;20215;-48
2023/06/26 03:25:51;;;;;;;10.13;9.23;;;19.20;99.90;;;;;;5001507;28;20203;-44
2023/06/26 03:28:32;;;;;;;9.90;8.90;;;19.20;99.90;;;;;;5013807;28;20199;-49
2023/06/26 03:30:58;;;;;;;9.17;8.47;;;19.20;99.90;;;;;;5012202;28;20228;-45
2023/06/26 03:33:26;;;;;;;9.50;8.70;;;19.20;99.90;;;;;;5008481;28;20216;-54
2023/06/26 03:35:54;;;;;;;9.30;8.50;;;19.20;99.90;;;;;;5023293;28;20340;-48
2023/06/26 03:38:22;;;;;;;9.57;8.77;;;19.20;99.90;;;;;;5015269;28;20265;-52
2023/06/26 03:40:50;;;;;;;9.90;9.00;;;19.20;99.90;;;;;;5000229;28;20354;-45
2023/06/26 03:43:17;;;;;;;8.93;8.33;;;19.20;99.90;;;;;;5022218;28;20192;-54
2023/06/26 03:46:02;;;;;;;9.67;8.87;;;19.20;99.90;;;;;;5007441;28;20212;-47
2023/06/26 03:48:29;;;;;;;8.93;8.13;;;19.30;99.90;;;;;;5014046;28;20234;-56
2023/06/26 03:50:56;;;;;;;9.87;8.83;;;19.30;99.90;;;;;;5023143;28;20698;-49
2023/06/26 03:53:23;;;;;;;9.77;8.97;;;19.30;99.90;;;;;;5012110;28;20211;-55
2023/06/26 03:55:52;;;;;;;9.27;8.47;;;19.30;99.90;;;;;;4999149;28;20211;-50
2023/06/26 03:58:22;;;;;;;9.53;8.73;;;19.30;99.90;;;;;;5016380;28;20216;-52
2023/06/26 04:00:49;;;;;;;9.90;9.00;;;19.30;99.90;;;;;;5007004;28;20401;-57
2023/06/26 04:03:16;;;;;;;8.60;8.00;;;19.30;99.90;;;;;;5009728;28;20204;-52
2023/06/26 04:05:43;;;;;;;9.60;8.80;;;19.30;99.90;;;;;;5023407;28;20203;-55
2023/06/26 04:08:10;;;;;;;8.67;7.87;;;19.30;99.90;;;;;;5003686;28;20239;-52
2023/06/26 04:10:37;;;;;;;9.50;8.67;;;19.30;99.90;;;;;;4969980;28;1081321;-50
2023/06/26 04:13:05;;;;;;;8.80;8.10;;;19.30;99.90;;;;;;4999658;28;20529;-50
2023/06/26 04:15:32;;;;;;;9.73;8.73;;;19.40;99.90;;;;;;5012369;28;22822;-46
2023/06/26 04:17:58;;;;;;;9.03;8.27;;;19.40;99.90;;;;;;5014503;28;20315;-48
2023/06/26 04:20:25;;;;;;;8.93;8.13;;;19.50;99.90;;;;;;4998526;28;20255;-54
2023/06/26 04:22:52;;;;;;;9.70;8.50;;;19.50;99.90;;;;;;5016470;28;20246;-51
2023/06/26 04:25:19;;;;;;;10.50;8.53;;;19.50;99.90;;;;;;5006279;28;20290;-54
2023/06/26 04:27:46;;;;;;;8.30;7.60;;;19.50;99.90;;;;;;5001598;28;20736;-47
2023/06/26 04:30:15;;;;;;;8.50;7.87;;;19.60;99.90;;;;;;5020012;28;20215;-54
2023/06/26 04:32:42;;;;;;;8.77;7.83;;;19.60;99.90;;;;;;5005581;28;20313;-49
2023/06/26 04:35:09;;;;;;;8.87;8.17;;;19.70;99.90;;;;;;5014524;28;20200;-51
2023/06/26 04:37:38;;;;;;;8.93;8.03;;;19.70;99.90;;;;;;5009249;28;20216;-53
2023/06/26 04:40:06;;;;;;;8.67;7.93;;;19.70;99.90;;;;;;5017454;28;20206;-48
2023/06/26 04:42:33;;;;;;;10.43;8.00;;;19.80;99.90;;;;;;4990710;28;20231;-52
2023/06/26 04:45:02;;;;;;;9.13;8.33;;;19.80;99.90;;;;;;5015002;28;20887;-53
2023/06/26 04:47:30;;;;;;;8.27;7.57;;;19.90;99.90;;;;;;5019793;28;20193;-46
2023/06/26 04:49:57;;;;;;;9.13;8.07;;;20.00;99.90;;;;;;5002638;28;20973;-49
2023/06/26 04:52:24;;;;;;;8.27;7.57;;;20.00;99.90;;;;;;5016118;28;20791;-49
2023/06/26 04:54:51;;;;;;;8.77;7.97;;;20.00;99.90;;;;;;5006888;28;20201;-53
2023/06/26 04:57:18;;;;;;;8.57;7.70;;;20.10;99.90;;;;;;4989987;28;20212;-48
2023/06/26 04:59:45;;;;;;;7.63;6.93;;;20.10;99.90;;;;;;5020756;28;20192;-53
2023/06/26 05:02:14;;;;;;;8.77;7.97;;;20.20;99.90;;;;;;5020966;28;20231;-45
2023/06/26 05:04:42;;;;;;;8.47;7.70;;;20.20;99.90;;;;;;5009221;28;20196;-53
2023/06/26 05:07:09;;;;;;;8.83;7.70;;;20.30;99.90;;;;;;5011008;28;20210;-54
2023/06/26 05:09:36;;;;;;;8.37;7.67;;;20.30;99.90;;;;;;4997843;28;20218;-49
2023/06/26 05:12:03;;;;;;;8.90;8.07;;;20.40;99.90;;;;;;4999267;28;20239;-55
2023/06/26 05:14:30;;;;;;;10.40;7.83;;;20.40;99.90;;;;;;5000194;28;20224;-54
2023/06/26 05:16:57;;;;;;;9.17;7.17;;;20.50;99.90;;;;;;5013270;28;20211;-49
2023/06/26 05:19:24;;;;;;;8.47;7.80;;;20.50;99.90;;;;;;5009823;28;20232;-55
2023/06/26 05:21:53;;;;;;;8.30;7.67;;;20.60;99.90;;;;;;4996748;28;20247;-53
2023/06/26 05:24:20;;;;;;;8.43;7.63;;;20.70;99.90;;;;;;5010839;28;20222;-51
2023/06/26 05:26:48;;;;;;;8.40;7.40;;;20.80;99.90;;;;;;5008376;28;20290;-55
2023/06/26 05:29:15;;;;;;;8.30;7.60;;;20.80;99.90;;;;;;4989995;28;20332;-45
2023/06/26 05:31:44;;;;;;;7.80;7.10;;;20.90;99.90;;;;;;5000212;28;20224;-50
2023/06/26 05:34:12;;;;;;;8.87;7.57;;;21.00;99.90;;;;;;5017449;28;20196;-45
2023/06/26 05:36:41;;;;;;;8.17;7.50;;;21.00;99.90;;;;;;4993708;28;20289;-56
2023/06/26 05:39:09;;;;;;;7.77;7.07;;;21.10;99.90;;;;;;5015018;28;20728;-48
2023/06/26 05:41:37;;;;;;;7.73;7.00;;;21.10;99.90;;;;;;5000755;28;20254;-54
2023/06/26 05:44:04;;;;;;;9.47;6.97;;;21.20;99.90;;;;;;4986984;28;20212;-51
2023/06/26 05:46:31;;;;;;;7.83;7.03;;;21.30;99.90;;;;;;5015080;28;20196;-56
2023/06/26 05:48:58;;;;;;;7.57;6.87;;;21.40;99.90;;;;;;5018991;28;20819;-46
2023/06/26 05:51:25;;;;;;;7.65;6.35;;;21.40;99.90;;;;;;5003978;28;20228;-56
2023/06/26 05:53:52;;;;;;;7.07;6.50;;;21.60;99.90;;;;;;5012464;28;20383;-50
2023/06/26 05:56:21;;;;;;;7.63;6.93;;;21.60;99.90;;;;;;4993747;28;20193;-52
2023/06/26 05:58:49;;;;;;;7.27;6.60;;;21.80;99.90;;;;;;5003666;28;20224;-52
2023/06/26 06:01:15;;;;;;;8.90;7.22;;;21.90;99.90;;;;;;5004552;28;20259;-46
2023/06/26 06:03:42;;;;;;;7.77;7.00;;;21.90;99.90;;;;;;5020789;28;20262;-54
2023/06/26 06:06:09;;;;;;;7.53;6.83;;;22.00;99.90;;;;;;5001217;28;20192;-53
2023/06/26 06:08:36;;;;;;;7.55;6.80;;;22.00;99.90;;;;;;5008942;28;20227;-50
2023/06/26 06:11:03;;;;;;;6.97;6.28;;;22.10;99.90;;;;;;5013729;28;20356;-55
2023/06/26 06:13:31;;;;;;;12.13;6.73;;;22.20;99.90;;;;;;5006899;28;20207;-46
2023/06/26 06:15:58;;;;;;;8.23;7.53;;;22.20;99.90;;;;;;4995882;28;20200;-46
2023/06/26 06:18:25;;;;;;;8.90;7.47;;;22.30;99.90;;;;;;5022435;28;20970;-47
2023/06/26 06:20:51;;;;;;;7.10;6.38;;;22.40;99.90;;;;;;5000640;28;20224;-56
2023/06/26 06:23:18;;;;;;;6.85;6.32;;;22.50;99.90;;;;;;5000359;28;20282;-55
2023/06/26 06:25:45;;;;;;;6.60;6.10;;;22.50;99.90;;;;;;5008317;28;20204;-53
2023/06/26 06:28:12;;;;;;;7.35;6.65;;;22.60;99.90;;;;;;5014657;28;20208;-53
2023/06/26 06:30:40;;;;;;;7.32;6.60;;;22.70;99.90;;;;;;4993670;28;20993;-51
2023/06/26 06:33:07;;;;;;;8.60;6.60;;;22.80;99.90;;;;;;5017271;28;20254;-46
2023/06/26 06:35:33;;;;;;;7.30;6.40;;;22.90;99.90;;;;;;5019025;28;20289;-52
2023/06/26 06:38:00;;;;;;;6.68;6.18;;;23.00;99.90;;;;;;5005519;28;20418;-46
2023/06/26 06:40:27;;;;;;;7.05;6.43;;;23.10;99.90;;;;;;5011434;28;20701;-53
2023/06/26 06:42:54;;;;;;;7.35;6.30;;;23.20;99.90;;;;;;5001309;28;20270;-52
2023/06/26 06:45:21;;;;;;;6.88;6.38;;;23.30;99.90;;;;;;5016266;28;20547;-53
2023/06/26 06:47:49;;;;;;;7.30;6.63;;;23.30;99.90;;;;;;4996209;28;20235;-49
2023/06/26 06:50:17;;;;;;;6.85;6.05;;;23.40;99.90;;;;;;5018045;28;20199;-56
2023/06/26 06:52:44;;;;;;;7.22;6.53;;;23.40;99.90;;;;;;4994698;28;20862;-50
2023/06/26 06:55:11;;;;;;;7.13;6.55;;;23.50;99.90;;;;;;5009387;28;20224;-54
2023/06/26 06:57:39;;;;;;;6.85;6.32;;;23.50;99.90;;;;;;5005263;28;20239;-47
2023/06/26 07:00:09;;;;;;;9.55;6.75;;;23.50;99.90;;;;;;5012426;28;20196;-52
2023/06/26 07:02:36;;;;;;;9.70;6.80;;;23.60;99.90;;;;;;4996446;28;20216;-50
2023/06/26 07:05:05;;;;;;;7.38;6.65;;;23.60;99.90;;;;;;5018626;28;20263;-53
2023/06/26 07:07:33;;;;;;;7.22;6.63;;;23.70;99.90;;;;;;4989436;28;20648;-50
2023/06/26 07:10:00;;;;;;;7.35;6.75;;;23.80;99.90;;;;;;5011435;28;20242;-55
2023/06/26 07:12:27;;;;;;;9.60;6.10;;;23.90;99.90;;;;;;4997498;28;20711;-45
2023/06/26 07:14:54;;;;;;;6.78;5.72;;;24.00;99.90;;;;;;5010408;28;20204;-47
2023/06/26 07:17:21;;;;;;;6.20;5.60;;;24.10;99.90;;;;;;4990297;28;21693;-54
2023/06/26 07:19:48;;;;;;;7.10;6.40;;;24.20;99.90;;;;;;5013390;28;20196;-51
2023/06/26 07:22:18;;;;;;;6.32;5.72;;;24.30;99.90;;;;;;5009912;28;20643;-56
2023/06/26 07:24:45;;;;;;;8.38;7.07;;;24.30;99.90;;;;;;5004100;28;20208;-46
2023/06/26 07:27:12;;;;;;;7.20;6.50;;;24.40;99.90;;;;;;5010716;28;20200;-53
2023/06/26 07:29:39;;;;;;;7.07;6.47;;;24.50;99.90;;;;;;5011016;28;20619;-48
2023/06/26 07:32:06;;;;;;;7.00;6.32;;;24.50;99.90;;;;;;5016267;28;20265;-55
2023/06/26 07:34:33;;;;;;;7.78;6.32;;;24.50;99.90;;;;;;4997117;28;20201;-48
2023/06/26 07:37:00;;;;;;;6.68;6.07;;;24.60;99.90;;;;;;5020529;28;20659;-54
2023/06/26 07:39:29;;;;;;;8.43;6.45;;;24.60;99.90;;;;;;5007703;28;20298;-55
2023/06/26 07:41:58;;;;;;;7.00;6.40;;;24.80;99.90;;;;;;5016587;28;20313;-51
2023/06/26 07:44:24;;;;;;;7.70;7.03;;;24.90;99.90;;;;;;5002248;28;20942;-48
2023/06/26 07:46:51;;;;;;;9.07;6.72;;;25.00;99.90;;;;;;5015647;28;20212;-50
2023/06/26 07:49:18;;;;;;;6.47;5.68;;;25.10;99.90;;;;;;5000095;28;20232;-48
2023/06/26 07:51:45;;;;;;;6.72;6.05;;;25.10;99.90;;;;;;5024666;28;20223;-47
2023/06/26 07:54:12;;;;;;;11.57;6.85;;;25.30;99.90;;;;;;5013422;28;20200;-56
2023/06/26 07:56:55;;;;;;;7.22;6.60;;;25.40;99.90;;;;;;5008320;28;20208;-45
2023/06/26 07:59:23;;;;;;;7.25;6.55;;;25.40;99.90;;;;;;5006426;28;20224;-49
2023/06/26 08:01:49;;;;;;;6.60;6.10;;;25.50;99.90;;;;;;5015197;28;20227;-45
2023/06/26 08:04:16;;;;;;;8.27;6.40;;;25.50;99.90;;;;;;4997895;28;20278;-53
2023/06/26 08:06:44;;;;;;;7.32;6.60;;;25.60;99.90;;;;;;5020916;28;20196;-55
2023/06/26 08:09:12;;;;;;;8.15;7.20;;;25.60;99.90;;;;;;5008612;28;20689;-51
2023/06/26 08:11:39;;;;;;;8.68;6.72;;;25.70;99.90;;;;;;5010037;28;20216;-47
2023/06/26 08:14:07;;;;;;;8.13;7.35;;;25.80;99.90;;;;;;5009592;28;20207;-54
2023/06/26 08:16:34;;;;;;;7.68;6.28;;;25.80;99.90;;;;;;5009040;28;20211;-49
2023/06/26 08:19:01;;;;;;;7.03;6.43;;;25.80;99.90;;;;;;5014189;28;20212;-56
2023/06/26 08:21:29;;;;;;;7.47;6.80;;;25.80;99.90;;;;;;5005174;28;20325;-46
2023/06/26 08:23:56;;;;;;;7.88;7.18;;;25.80;99.90;;;;;;5019907;28;20671;-45
2023/06/26 08:26:23;;;;;;;7.78;7.07;;;25.80;99.90;;;;;;5010098;28;20257;-46
2023/06/26 08:28:49;;;;;;;7.55;6.93;;;25.80;99.90;;;;;;5013395;28;20301;-45
2023/06/26 08:31:19;;;;;;;10.95;6.82;;;25.90;99.90;;;;;;4998594;28;20884;-55
2023/06/26 08:33:45;;;;;;;7.50;6.90;;;26.00;99.90;;;;;;5015071;28;20195;-45
2023/06/26 08:36:12;;;;;;;7.90;6.97;;;26.10;99.90;;;;;;4995551;28;20204;-53
2023/06/26 08:38:40;;;;;;;7.60;6.90;;;26.20;99.90;;;;;;5022725;28;20211;-45
2023/06/26 08:41:07;;;;;;;8.15;7.38;;;26.40;99.90;;;;;;5009125;28;20232;-53
2023/06/26 08:43:35;;;;;;;7.25;6.55;;;26.50;99.90;;;;;;5007217;28;20404;-51
2023/06/26 08:46:02;;;;;;;7.18;6.47;;;26.60;99.90;;;;;;5000508;28;20232;-52
2023/06/26 08:48:33;;;;;;;7.85;6.63;;;26.70;99.90;;;;;;5012066;28;20701;-54
2023/06/26 08:51:03;;;;;;;7.97;7.18;;;26.70;99.90;;;;;;4995826;28;20232;-52
2023/06/26 08:53:38;;;;;;;8.65;6.38;;;26.70;99.90;;;;;;5021492;28;20258;-52
2023/06/26 08:56:07;;;;;;;8.00;7.05;;;26.70;99.90;;;;;;5005355;28;20208;-50
2023/06/26 08:58:36;;;;;;;7.78;6.55;;;26.70;99.90;;;;;;5010694;28;20220;-47
2023/06/26 09:01:05;;;;;;;7.28;6.55;;;26.70;99.90;;;;;;5010469;28;20990;-52
2023/06/26 09:03:33;;;;;;;8.57;6.50;;;26.70;99.90;;;;;;5010577;28;20203;-47
2023/06/26 09:06:00;;;;;;;7.28;6.63;;;26.70;99.90;;;;;;5016245;28;20208;-55
2023/06/26 09:08:27;;;;;;;8.45;7.50;;;26.70;99.90;;;;;;4996991;28;20294;-53
2023/06/26 09:10:54;;;;;;;7.57;6.97;;;26.70;99.90;;;;;;5010346;28;20362;-52
2023/06/26 09:13:21;;;;;;;7.85;7.22;;;26.80;99.90;;;;;;5015258;28;20223;-55
2023/06/26 09:15:47;;;;;;;7.43;6.82;;;26.90;99.90;;;;;;5021189;28;20196;-46
2023/06/26 09:18:17;;;;;;;8.20;7.50;;;27.10;99.90;;;;;;4997447;28;20234;-51
2023/06/26 09:20:45;;;;;;;8.30;7.47;;;27.30;99.90;;;;;;5016351;28;20219;-51
2023/06/26 09:23:13;;;;;;;8.15;7.45;;;27.40;99.90;;;;;;4996887;28;20302;-50
2023/06/26 09:25:41;;;;;;;8.35;7.35;;;27.30;99.90;;;;;;5012791;28;20196;-51
2023/06/26 09:28:09;;;;;;;9.50;8.73;;;27.30;99.90;;;;;;5017670;28;20192;-52
2023/06/26 09:30:36;;;;;;;10.32;9.40;;;27.10;99.90;;;;;;5010438;28;21028;-50
2023/06/26 09:33:14;;;;;;;11.52;9.85;;;26.90;99.90;;;;;;5001928;28;20265;-50
2023/06/26 09:35:41;;;;;;;11.43;10.18;;;26.80;99.90;;;;;;5022969;28;20219;-51
2023/06/26 09:38:09;;;;;;;11.50;9.63;;;26.60;99.90;;;;;;5019124;28;20196;-47
2023/06/26 09:40:38;;;;;;;9.68;8.77;;;26.40;99.90;;;;;;5000481;28;20250;-47
2023/06/26 09:43:05;;;;;;;15.55;9.77;;;26.10;99.90;;;;;;5002560;28;20203;-47
2023/06/26 09:45:33;;;;;;;11.65;9.50;;;25.60;99.90;;;;;;5009789;28;20199;-47
2023/06/26 09:48:02;;;;;;;9.88;9.07;;;25.10;99.90;;;;;;5014130;28;20262;-49
2023/06/26 09:50:31;;;;;;;12.30;8.95;;;24.70;99.90;;;;;;5008382;28;20212;-50
2023/06/26 09:52:59;;;;;;;11.55;9.52;;;24.50;99.90;;;;;;5016276;28;20279;-49
2023/06/26 09:55:27;;;;;;;9.32;8.15;;;24.40;99.90;;;;;;4990204;28;20214;-54
2023/06/26 09:57:57;;;;;;;8.40;7.68;;;24.30;99.90;;;;;;5013006;28;20539;-50
2023/06/26 10:00:24;;;;;;;10.68;7.68;;;24.20;99.90;;;;;;5009480;28;20223;-51
2023/06/26 10:02:51;;;;;;;9.30;7.22;;;24.20;99.90;;;;;;5021242;28;20224;-51
2023/06/26 10:05:18;;;;;;;8.98;8.18;;;24.10;99.90;;;;;;5008975;28;20203;-51
2023/06/26 10:07:46;;;;;;;9.63;8.65;;;24.10;99.90;;;;;;5017497;28;20204;-48
2023/06/26 10:10:13;;;;;;;10.07;9.18;;;24.00;99.90;;;;;;5004110;28;20544;-51
2023/06/26 10:12:48;;;;;;;10.52;9.43;;;23.90;99.90;;;;;;5002387;28;20192;-50
2023/06/26 10:15:17;;;;;;;10.15;9.10;;;23.80;99.90;;;;;;5008860;28;20265;-53
2023/06/26 10:17:45;;;;;;;12.55;9.18;;;23.70;99.90;;;;;;5013262;28;20255;-52
2023/06/26 10:20:16;;;;;;;12.77;9.57;;;23.50;99.90;;;;;;5009636;28;20293;-51
2023/06/26 10:22:46;;;;;;;14.88;10.25;;;23.40;99.90;;;;;;5017336;28;20270;-50
2023/06/26 10:25:17;;;;;;;12.75;10.35;;;23.30;99.90;;;;;;5020055;28;20204;-49
2023/06/26 10:27:51;;;;;;;14.82;10.15;;;23.00;99.90;;;;;;4988384;28;20208;-49
2023/06/26 10:30:23;;;;;;;13.20;10.65;;;22.70;99.90;;;;;;5005750;28;20220;-47
2023/06/26 10:32:51;;;;;;;11.65;10.45;;;22.40;99.90;;;;;;5016299;28;20636;-52
2023/06/26 10:35:20;;;;;;;12.23;10.98;;;;;;;;;;5008780;28;20349;-53
2023/06/26 10:37:49;;;;;;;11.93;10.48;;;21.80;99.90;;;;;;5022034;28;20196;-52
2023/06/26 10:40:23;;;;;;;11.75;9.68;;;21.90;99.90;;;;;;5014802;28;20216;-53
2023/06/26 10:42:51;;;;;;;9.88;7.28;;;21.60;99.90;;;;;;4984283;28;20302;-49
2023/06/26 10:45:20;;;;;;;7.50;6.88;;;21.40;99.90;;;;;;5006959;28;20649;-53
2023/06/26 10:47:48;;;;;;;6.78;6.03;;;21.30;99.90;;;;;;5014387;28;20227;-48
2023/06/26 10:50:20;;;;;;;8.32;6.25;;;21.10;99.90;;;;;;4995308;28;20250;-52
2023/06/26 10:52:46;;;;;;;6.70;6.00;;;21.00;99.90;;;;;;5010978;28;20188;-49
2023/06/26 10:55:15;;;;;;;6.43;5.80;;;20.90;99.90;;;;;;5014622;28;20207;-48
2023/06/26 10:57:49;;;;;;;10.20;5.90;;;20.90;99.90;;;;;;4982348;28;20208;-50
2023/06/26 11:00:18;;;;;;;7.18;6.55;;;21.00;99.90;;;;;;5019419;28;20216;-52
2023/06/26 11:02:49;;;;;;;6.60;5.90;;;21.10;99.90;;;;;;5002950;28;20200;-53
2023/06/26 11:05:25;;;;;;;9.38;6.40;;;21.20;99.90;;;;;;5023687;28;20294;-51
2023/06/26 11:08:05;;;;;;;9.07;6.97;;;21.30;99.90;;;;;;5010212;28;20195;-53
2023/06/26 11:10:49;;;;;;;8.68;7.07;;;21.40;99.90;;;;;;5025233;28;20242;-50
2023/06/26 11:13:18;;;;;;;8.55;7.65;;;21.40;99.90;;;;;;4995504;28;20214;-49
2023/06/26 11:15:47;;;;;;;8.70;7.72;;;21.40;99.90;;;;;;5013283;28;20228;-53
2023/06/26 11:18:16;;;;;;;11.38;7.95;;;21.40;99.90;;;;;;5001718;28;20694;-48
2023/06/26 11:20:43;;;;;;;12.15;7.82;;;21.30;99.90;;;;;;5019906;28;20224;-49
2023/06/26 11:23:11;;;;;;;11.15;7.30;;;21.20;99.90;;;;;;5018016;28;20220;-48
2023/06/26 11:25:38;;;;;;;8.77;6.77;;;21.20;99.90;;;;;;5016734;28;20196;-50
2023/06/26 11:28:06;;;;;;;9.68;7.22;;;21.30;99.90;;;;;;4996070;28;20701;-48
2023/06/26 11:30:33;;;;;;;8.48;6.28;;;21.40;99.90;;;;;;5002887;28;20219;-50
2023/06/26 11:33:05;;;;;;;10.15;5.97;;;21.50;99.90;;;;;;5007820;28;20736;-46
2023/06/26 11:35:32;;;;;;;10.82;6.30;;;21.60;99.90;;;;;;5013411;28;20724;-45
2023/06/26 11:38:04;;;;;;;10.98;5.80;;;21.60;99.90;;;;;;5013829;28;20279;-47
2023/06/26 11:40:31;;;;;;;7.82;5.75;;;21.80;99.90;;;;;;5009526;28;20235;-49
2023/06/26 11:42:59;;;;;;;7.53;4.70;;;21.90;99.90;;;;;;5015563;28;20218;-48
2023/06/26 11:45:26;;;;;;;12.85;5.03;;;22.00;99.90;;;;;;4985052;28;20737;-50
2023/06/26 11:47:56;;;;;;;8.52;3.72;;;22.00;99.90;;;;;;5012483;28;20204;-49
2023/06/26 11:50:24;;;;;;;6.30;3.13;;;21.90;99.90;;;;;;5015218;28;20192;-49
2023/06/26 11:52:55;;;;;;;7.07;3.17;;;21.80;99.90;;;;;;5016159;28;20975;-49
2023/06/26 11:55:22;;;;;;;6.60;3.03;;;21.80;99.90;;;;;;5007854;28;20283;-50
2023/06/26 11:57:50;;;;;;;6.97;2.35;;;21.90;99.90;;;;;;5013066;28;20211;-46
2023/06/26 12:00:18;;;;;;;3.80;2.30;;;22.00;99.90;;;;;;5001743;28;20587;-59
2023/06/26 12:02:45;;;;;;;7.28;2.13;;;21.90;99.90;;;;;;5012098;28;20238;-47
2023/06/26 12:05:13;;;;;;;6.73;2.20;;;21.80;99.90;;;;;;5004558;28;20223;-48
2023/06/26 12:07:42;;;;;;;6.10;2.30;;;21.70;99.90;;;;;;5009557;28;20273;-44
2023/06/26 12:10:11;;;;;;;6.63;2.13;;;21.90;99.90;;;;;;5013909;28;20613;-56
2023/06/26 12:12:38;;;;;;;6.70;2.33;;;22.00;99.90;;;;;;5016088;28;20575;-43
2023/06/26 12:15:08;;;;;;;5.95;2.38;;;22.10;99.90;;;;;;5004040;28;20208;-51
2023/06/26 12:17:39;;;;;;;4.97;2.05;;;22.30;99.90;;;;;;5003786;28;20806;-51
2023/06/26 12:20:18;;;;;;;7.15;2.30;;;22.50;99.90;;;;;;5015261;28;20234;-49
2023/06/26 12:22:46;;;;;;;4.13;2.40;;;22.40;99.90;;;;;;5019377;28;20192;-48
2023/06/26 12:25:14;;;;;;;7.88;2.35;;;22.40;99.90;;;;;;5012819;28;20553;-48
2023/06/26 12:27:41;;;;;;;6.78;2.22;;;22.40;99.90;;;;;;5015525;28;20273;-48
2023/06/26 12:30:08;;;;;;;6.80;2.03;;;22.50;99.90;;;;;;4994705;28;20196;-50
2023/06/26 12:32:36;;;;;;;6.65;2.28;;;22.50;99.90;;;;;;4999931;28;20279;-47
2023/06/26 12:35:03;;;;;;;5.78;2.70;;;22.40;99.90;;;;;;5019377;28;20689;-52
2023/06/26 12:37:37;;;;;;;2.80;2.38;;;22.40;99.90;;;;;;5011892;28;20204;-48
2023/06/26 12:40:17;;;;;;;7.00;2.20;;;22.50;99.90;;;;;;5017740;28;20203;-49
2023/06/26 12:42:43;;;;;;;6.93;2.50;;;22.50;99.90;;;;;;4989710;28;20814;-48
2023/06/26 12:45:15;;;;;;;6.65;2.72;;;22.50;99.90;;;;;;5015016;28;20204;-50
2023/06/26 12:47:42;;;;;;;7.05;2.40;;;22.60;99.90;;;;;;4988602;28;20193;-49
2023/06/26 12:50:09;;;;;;;5.75;2.50;;;22.60;99.90;;;;;;5020014;28;20192;-48